Time;durP1;ratioP1;P1;durP2;ratioP2;P2;SDS_P1;SDS_P2;PMS_P1;PMS_P2;Temp;Humidity;BMP_temperature;BMP_pressure;BME280_temperature;BME280_humidity;BME280_pressure;Samples;Min_cycle;Max_cycle;Signal;HPM_P1;HPM_P2
2023/05/15 00:02:29;;;;;;;17.67;10.03;;;13.10;99.90;;;11.46;100.00;99403.78;10405379;28;97796;-95
2023/05/15 00:07:33;;;;;;;17.57;9.63;;;13.10;99.90;;;11.46;100.00;99385.16;10406687;28;96701;-94
2023/05/15 00:12:36;;;;;;;23.00;12.23;;;13.10;99.90;;;11.45;100.00;99394.94;10426951;27;96520;-94
2023/05/15 00:17:39;;;;;;;22.73;11.00;;;13.10;99.90;;;11.50;100.00;99384.56;10418648;27;96585;-93
2023/05/15 00:22:43;;;;;;;18.07;10.10;;;13.10;99.90;;;11.49;100.00;99384.75;10404495;28;97068;-95
2023/05/15 00:27:47;;;;;;;24.50;12.03;;;13.20;99.90;;;11.49;100.00;99385.59;10405445;27;96538;-94
2023/05/15 00:32:50;;;;;;;25.87;13.53;;;13.10;99.90;;;11.51;100.00;99396.03;10418843;27;96622;-94
2023/05/15 00:37:53;;;;;;;19.20;10.90;;;13.20;99.90;;;11.53;100.00;99397.50;10417486;27;96625;-94
2023/05/15 00:42:58;;;;;;;18.97;10.23;;;13.20;99.90;;;11.56;100.00;99427.38;10349437;28;96661;-94
2023/05/15 00:48:02;;;;;;;22.33;12.07;;;13.20;99.90;;;11.55;100.00;99423.91;10410834;28;97179;-96
2023/05/15 00:53:05;;;;;;;26.10;11.70;;;13.20;99.90;;;11.54;100.00;99400.97;10410271;28;97395;-95
2023/05/15 00:58:10;;;;;;;20.30;9.80;;;13.20;99.90;;;11.57;100.00;99403.22;10412159;28;97463;-95
2023/05/15 01:03:13;;;;;;;28.87;12.50;;;13.20;99.90;;;11.59;100.00;99385.25;10414880;28;96717;-96
2023/05/15 01:08:38;;;;;;;34.00;16.20;;;13.20;99.90;;;11.62;100.00;99373.38;10381298;28;97280;-96
2023/05/15 01:13:41;;;;;;;35.53;14.33;;;13.20;99.90;;;11.60;100.00;99389.56;10395963;28;96184;-96
2023/05/15 01:18:44;;;;;;;27.27;12.20;;;13.20;99.90;;;11.60;100.00;99365.59;10426137;27;96637;-96
2023/05/15 01:24:10;;;;;;;20.20;9.93;;;13.30;99.90;;;11.64;100.00;99366.06;10414648;28;96267;-96
2023/05/15 01:29:26;;;;;;;17.67;9.67;;;13.30;99.90;;;11.56;100.00;99355.53;10434945;28;96596;-96
2023/05/15 01:34:52;;;;;;;16.67;8.53;;;13.20;99.90;;;11.53;100.00;99332.81;10441410;28;96438;-96
2023/05/15 01:40:01;;;;;;;22.80;9.90;;;13.20;99.90;;;11.49;100.00;99339.53;10433232;28;95809;-95
2023/05/15 01:45:10;;;;;;;22.37;10.70;;;13.20;99.90;;;11.46;100.00;99326.63;10442603;27;95780;-95
2023/05/15 01:50:17;;;;;;;25.63;11.10;;;13.10;99.90;;;11.43;100.00;99333.16;10416746;28;96419;-96
2023/05/15 01:55:24;;;;;;;26.07;12.33;;;13.10;99.90;;;11.50;100.00;99336.66;10432505;27;95790;-96
2023/05/15 02:00:31;;;;;;;22.97;11.43;;;13.10;99.90;;;11.42;100.00;99326.19;10440807;27;96431;-95
2023/05/15 02:05:35;;;;;;;21.03;10.60;;;13.10;99.90;;;11.46;100.00;99316.00;10413550;28;97390;-96
2023/05/15 02:10:39;;;;;;;19.87;9.93;;;13.10;99.90;;;11.51;100.00;99321.53;10409890;28;96860;-96
2023/05/15 02:15:42;;;;;;;32.13;13.27;;;13.20;99.90;;;11.49;100.00;99329.72;10427018;28;96717;-95
2023/05/15 02:20:45;;;;;;;32.27;12.73;;;13.20;99.90;;;11.58;100.00;99332.25;10395131;28;96706;-95
2023/05/15 02:26:32;;;;;;;19.90;9.33;;;13.20;99.90;;;11.63;100.00;99343.09;10414723;28;96734;-95
2023/05/15 02:31:49;;;;;;;20.37;10.20;;;13.20;99.90;;;11.57;100.00;99357.19;10426654;28;96695;-95
2023/05/15 02:36:54;;;;;;;19.63;11.00;;;13.20;99.90;;;11.57;100.00;99383.78;10411883;28;96314;-96
2023/05/15 02:42:00;;;;;;;21.00;11.27;;;13.20;99.90;;;11.56;100.00;99380.31;10404023;28;96471;-95
2023/05/15 02:47:04;;;;;;;25.23;12.10;;;13.10;99.90;;;11.50;100.00;99373.91;10410851;28;96533;-95
2023/05/15 02:52:07;;;;;;;26.70;14.77;;;13.10;99.90;;;11.48;100.00;99362.66;10414286;28;96494;-94
2023/05/15 02:57:10;;;;;;;25.30;13.33;;;13.10;99.90;;;11.49;100.00;99358.97;10424049;27;96602;-95
2023/05/15 03:02:13;;;;;;;25.53;12.90;;;13.10;99.90;;;11.53;100.00;99349.59;10407324;28;96997;-94
2023/05/15 03:07:16;;;;;;;30.37;12.87;;;13.20;99.90;;;11.55;100.00;99352.06;10409069;27;96578;-94
2023/05/15 03:12:19;;;;;;;41.57;16.37;;;13.20;99.90;;;11.61;100.00;99340.63;10386838;28;97313;-94
2023/05/15 03:17:22;;;;;;;29.83;12.87;;;13.30;99.90;;;11.65;100.00;99327.78;10406890;28;96830;-94
2023/05/15 03:22:25;;;;;;;32.70;13.17;;;13.30;99.90;;;11.68;100.00;99324.69;10409932;28;96485;-96
2023/05/15 03:27:28;;;;;;;41.10;15.03;;;13.30;99.90;;;11.69;100.00;99319.19;10392388;27;97200;-95
2023/05/15 03:32:31;;;;;;;20.63;11.13;;;13.30;99.90;;;11.70;100.00;99302.22;10382665;28;96796;-96
2023/05/15 03:37:34;;;;;;;30.60;12.47;;;13.30;99.90;;;11.75;100.00;99305.09;10408147;28;96735;-95
2023/05/15 03:42:37;;;;;;;52.00;18.23;;;13.40;99.90;;;11.72;100.00;99288.69;10406676;28;98536;-95
2023/05/15 03:47:41;;;;;;;35.07;15.27;;;13.40;99.90;;;11.68;100.00;99268.81;10404850;28;96611;-96
2023/05/15 03:52:44;;;;;;;23.10;11.93;;;13.40;99.90;;;11.70;100.00;99280.09;10406237;28;96510;-95
2023/05/15 03:57:48;;;;;;;28.57;13.93;;;13.40;99.90;;;11.73;100.00;99288.50;10405268;28;96757;-96
2023/05/15 04:02:51;;;;;;;24.90;10.57;;;13.40;99.90;;;11.72;100.00;99275.41;10406477;28;96492;-95
2023/05/15 04:07:54;;;;;;;31.03;14.23;;;13.30;99.90;;;11.72;100.00;99280.72;10419232;28;96806;-95
2023/05/15 04:12:57;;;;;;;26.57;11.27;;;13.40;99.90;;;11.76;100.00;99282.78;10407636;28;96585;-95
2023/05/15 04:18:00;;;;;;;26.13;12.70;;;13.40;99.90;;;11.76;100.00;99274.81;10407260;27;96633;-96
2023/05/15 04:23:04;;;;;;;35.73;14.53;;;13.40;99.90;;;11.73;100.00;99256.56;10412899;28;96501;-96
2023/05/15 04:28:08;;;;;;;27.30;13.33;;;13.40;99.90;;;11.83;100.00;99263.41;10413682;27;96521;-96
2023/05/15 04:33:11;;;;;;;33.00;14.13;;;13.50;99.90;;;11.84;100.00;99260.53;10450956;28;95717;-96
2023/05/15 04:38:15;;;;;;;37.30;16.13;;;13.50;99.90;;;11.90;100.00;99264.25;10415843;28;96016;-96
2023/05/15 04:43:18;;;;;;;32.40;18.33;;;13.60;99.90;;;11.92;100.00;99272.84;10412754;28;96764;-96
2023/05/15 04:48:22;;;;;;;22.67;13.03;;;13.60;99.90;;;11.98;100.00;99278.19;10428216;28;96112;-96
2023/05/15 04:53:25;;;;;;;26.97;14.40;;;13.70;99.90;;;12.04;100.00;99288.03;10424373;28;95683;-96
2023/05/15 04:58:30;;;;;;;19.50;12.37;;;13.70;99.90;;;12.03;100.00;99304.22;10415257;28;96329;-95
2023/05/15 05:03:33;;;;;;;22.03;11.90;;;13.70;99.90;;;12.03;100.00;99307.72;10410853;28;96721;-96
2023/05/15 05:08:37;;;;;;;26.90;15.10;;;13.70;99.90;;;12.06;100.00;99325.16;10412861;28;97118;-96
2023/05/15 05:13:51;;;;;;;22.77;13.53;;;13.70;99.90;;;12.07;100.00;99312.66;10418386;27;96166;-96
2023/05/15 05:19:01;;;;;;;26.03;17.27;;;13.80;99.90;;;12.16;100.00;99327.41;10426647;27;96659;-96
2023/05/15 05:24:05;;;;;;;24.13;12.90;;;13.80;99.90;;;12.10;100.00;99333.53;10427655;28;95814;-96
2023/05/15 05:29:15;;;;;;;42.00;21.83;;;13.80;99.90;;;12.19;100.00;99343.84;10424602;27;95810;-96
2023/05/15 05:34:36;;;;;;;30.47;17.17;;;13.80;99.90;;;12.20;100.00;99331.34;10428475;27;95754;-96
2023/05/15 05:39:55;;;;;;;22.63;13.97;;;13.90;99.90;;;12.38;100.00;99344.91;10421153;22;96670;-83
2023/05/15 05:44:59;;;;;;;22.90;13.93;;;14.00;99.90;;;12.42;100.00;99334.69;10330364;28;97916;-83
2023/05/15 05:50:02;;;;;;;22.20;14.57;;;14.00;99.90;;;12.52;100.00;99329.78;10365071;28;98068;-89
2023/05/15 05:55:05;;;;;;;23.70;16.43;;;14.10;99.90;;;12.61;100.00;99335.75;10357953;28;96806;-86
2023/05/15 06:00:10;;;;;;;15.30;11.75;;;14.20;99.90;;;12.69;100.00;99338.22;10304635;28;97439;-85
2023/05/15 06:05:14;;;;;;;30.23;14.68;;;14.30;99.90;;;12.73;100.00;99340.28;10342744;28;96536;-82
2023/05/15 06:10:18;;;;;;;18.90;13.20;;;14.40;99.90;;;12.81;100.00;99350.75;10336546;28;96521;-84
2023/05/15 06:15:21;;;;;;;13.52;10.35;;;14.40;99.90;;;12.88;100.00;99347.28;10341966;28;97630;-83
2023/05/15 06:20:24;;;;;;;19.47;12.40;;;14.50;99.90;;;12.85;100.00;99359.19;10347362;28;96455;-84
2023/05/15 06:25:28;;;;;;;12.95;10.85;;;14.40;99.90;;;12.83;100.00;99371.88;10313720;28;96528;-84
2023/05/15 06:30:32;;;;;;;14.40;10.68;;;14.50;99.90;;;12.87;100.00;99370.47;10359820;28;96678;-85
2023/05/15 06:35:35;;;;;;;16.27;11.20;;;14.50;99.90;;;12.89;100.00;99368.41;10363372;28;96429;-83
2023/05/15 06:40:38;;;;;;;18.35;11.73;;;14.50;99.90;;;12.89;100.00;99363.06;10346601;28;96550;-82
2023/05/15 06:45:41;;;;;;;15.65;11.00;;;14.50;99.90;;;12.99;100.00;99350.16;10331579;28;96453;-82
2023/05/15 06:50:44;;;;;;;17.35;11.38;;;14.60;99.90;;;13.07;100.00;99347.31;10342174;28;96580;-83
2023/05/15 06:55:47;;;;;;;14.43;11.35;;;14.70;99.90;;;13.13;100.00;99345.66;10358717;28;96695;-84
2023/05/15 07:00:50;;;;;;;12.07;10.20;;;14.70;99.90;;;13.11;100.00;99337.84;10344541;28;98020;-84
2023/05/15 07:05:56;;;;;;;14.00;10.40;;;14.80;99.90;;;13.22;100.00;99335.63;10339555;28;98398;-84
2023/05/15 07:10:59;;;;;;;10.63;8.60;;;14.80;99.90;;;13.27;100.00;99347.34;10340942;28;97409;-89
2023/05/15 07:16:02;;;;;;;10.43;8.50;;;14.90;99.90;;;13.31;100.00;99361.91;10309419;28;96680;-85
2023/05/15 07:21:05;;;;;;;10.98;9.18;;;14.90;99.90;;;13.30;100.00;99357.59;10368041;28;96451;-84
2023/05/15 07:26:08;;;;;;;10.77;8.05;;;14.90;99.90;;;13.29;100.00;99360.47;10329705;28;96442;-87
2023/05/15 07:31:19;;;;;;;9.27;7.93;;;14.90;99.90;;;13.28;100.00;99381.00;10345347;28;98068;-88
2023/05/15 07:36:22;;;;;;;8.43;6.95;;;14.90;99.90;;;13.30;100.00;99386.94;10339276;28;97811;-88
2023/05/15 07:41:25;;;;;;;17.73;7.85;;;14.90;99.90;;;13.29;100.00;99371.97;10360460;28;96643;-88
2023/05/15 07:46:29;;;;;;;8.60;6.75;;;15.00;99.90;;;13.34;100.00;99366.84;10334315;28;97624;-87
2023/05/15 07:51:32;;;;;;;10.23;6.70;;;15.00;99.90;;;13.41;100.00;99363.34;10343356;28;96801;-86
2023/05/15 07:56:35;;;;;;;10.90;9.05;;;15.00;99.90;;;13.48;100.00;99354.28;10342287;28;96666;-85
2023/05/15 08:01:38;;;;;;;11.75;8.45;;;15.10;99.90;;;13.56;100.00;99347.94;10347648;28;98206;-85
2023/05/15 08:06:41;;;;;;;7.55;6.30;;;15.20;99.90;;;13.65;100.00;99374.19;10358953;28;96827;-84
2023/05/15 08:11:46;;;;;;;7.78;6.47;;;15.30;99.90;;;13.80;100.00;99386.50;10336974;28;96644;-87
2023/05/15 08:16:50;;;;;;;11.98;7.25;;;15.40;99.90;;;13.94;100.00;99385.44;10356121;28;97266;-84
2023/05/15 08:21:53;;;;;;;11.48;7.22;;;15.50;99.90;;;14.07;100.00;99371.22;10347445;28;97478;-85
2023/05/15 08:26:56;;;;;;;7.93;5.93;;;15.70;99.90;;;14.22;100.00;99377.13;10346882;28;97017;-86
2023/05/15 08:32:00;;;;;;;7.13;6.05;;;15.80;99.90;;;14.35;100.00;99397.66;10372618;28;96587;-85
2023/05/15 08:37:05;;;;;;;5.63;4.82;;;15.90;99.90;;;14.43;100.00;99406.22;10315298;28;98079;-85
2023/05/15 08:42:32;;;;;;;7.75;5.55;;;16.00;99.90;;;14.52;100.00;99380.13;10317936;28;96601;-87
2023/05/15 08:47:40;;;;;;;7.10;5.40;;;16.10;99.90;;;14.67;100.00;99374.47;10297791;28;97314;-85
2023/05/15 08:52:46;;;;;;;5.97;5.15;;;16.30;99.90;;;14.79;100.00;99366.59;10317937;28;96770;-84
2023/05/15 08:57:50;;;;;;;5.63;5.00;;;16.40;99.90;;;14.89;100.00;99366.94;10297491;28;97578;-84
2023/05/15 09:02:53;;;;;;;7.72;4.88;;;16.50;99.90;;;15.03;100.00;99368.50;10317811;28;98783;-84
2023/05/15 09:08:00;;;;;;;5.07;4.03;;;16.60;99.90;;;15.13;100.00;99363.47;10310492;28;96722;-85
2023/05/15 09:13:06;;;;;;;6.32;4.80;;;16.70;99.90;;;15.04;100.00;99380.81;10328519;28;97193;-84
2023/05/15 09:18:10;;;;;;;6.88;5.05;;;16.70;99.90;;;14.96;100.00;99373.06;10343150;28;96932;-84
2023/05/15 09:23:26;;;;;;;5.40;4.53;;;16.60;99.90;;;15.02;100.00;99390.94;10309135;28;96515;-84
2023/05/15 09:28:32;;;;;;;4.10;3.70;;;16.60;99.90;;;15.34;100.00;99398.94;10326260;28;97666;-84
2023/05/15 09:33:39;;;;;;;3.85;3.22;;;16.80;99.90;;;15.47;100.00;99407.69;10326103;28;96629;-85
2023/05/15 09:38:46;;;;;;;4.07;2.70;;;17.10;99.90;;;15.50;100.00;99422.47;10330359;28;96651;-86
2023/05/15 09:43:50;;;;;;;3.08;2.72;;;17.10;99.90;;;15.46;100.00;99418.59;10342466;28;96695;-84
2023/05/15 09:48:54;;;;;;;3.92;3.30;;;17.10;99.90;;;15.37;100.00;99441.34;10345790;28;96602;-85
2023/05/15 09:53:57;;;;;;;4.18;3.30;;;17.00;99.90;;;15.24;100.00;99432.38;10349486;28;96507;-85
2023/05/15 09:59:00;;;;;;;3.65;2.88;;;16.90;99.90;;;15.20;100.00;99427.66;10366254;28;96422;-84
2023/05/15 10:04:05;;;;;;;4.75;2.80;;;16.80;99.90;;;15.16;100.00;99431.78;10349833;28;96693;-85
2023/05/15 10:09:09;;;;;;;3.90;3.28;;;16.70;99.90;;;15.15;100.00;99419.44;10349376;28;96471;-85
2023/05/15 10:14:13;;;;;;;2.80;2.15;;;16.70;99.90;;;15.33;100.00;99426.72;10366956;28;96439;-85
2023/05/15 10:19:22;;;;;;;2.60;1.80;;;16.80;99.90;;;15.43;100.00;99427.91;10364598;28;96532;-85
2023/05/15 10:24:29;;;;;;;2.53;1.40;;;17.00;99.90;;;15.42;100.00;99414.75;10349822;28;96510;-85
2023/05/15 10:29:33;;;;;;;3.90;1.60;;;17.00;99.90;;;15.67;100.00;99417.44;10347802;28;96712;-85
2023/05/15 10:34:37;;;;;;;2.47;1.40;;;17.20;99.90;;;15.85;100.00;99411.28;10349180;28;96774;-85
2023/05/15 10:39:42;;;;;;;2.00;1.40;;;17.40;99.90;;;15.84;100.00;99423.06;10346330;28;96672;-84
2023/05/15 10:44:47;;;;;;;1.23;1.00;;;17.50;99.90;;;15.77;100.00;99418.56;10332972;28;96468;-85
2023/05/15 10:49:50;;;;;;;1.38;1.00;;;17.40;99.90;;;15.79;100.00;99421.03;10345445;28;96621;-85
2023/05/15 10:54:53;;;;;;;1.05;0.88;;;17.40;99.90;;;16.00;100.00;99422.47;10322772;28;96792;-85
2023/05/15 10:59:57;;;;;;;1.17;0.93;;;17.60;99.90;;;16.16;100.00;99410.34;10290781;28;96572;-84
2023/05/15 11:05:02;;;;;;;1.65;0.85;;;17.80;99.90;;;16.40;100.00;99416.66;10338865;28;97059;-85
2023/05/15 11:10:27;;;;;;;1.33;0.98;;;18.00;99.90;;;16.49;100.00;99415.31;10362957;28;96642;-86
2023/05/15 11:15:44;;;;;;;3.53;1.08;;;18.20;99.90;;;16.44;100.00;99421.38;10363073;28;97049;-85
2023/05/15 11:20:53;;;;;;;1.73;1.00;;;18.10;99.90;;;16.53;100.00;99422.69;10345273;28;98265;-86
2023/05/15 11:25:56;;;;;;;1.27;1.00;;;18.20;99.90;;;16.53;100.00;99406.59;10358095;28;96625;-87
2023/05/15 11:31:04;;;;;;;0.95;0.77;;;18.30;99.90;;;16.75;100.00;99390.06;10333915;28;96957;-86
2023/05/15 11:36:09;;;;;;;0.90;0.77;;;18.40;99.90;;;16.92;100.00;99392.91;10328584;28;97080;-86
2023/05/15 11:41:20;;;;;;;1.60;1.35;;;18.60;99.90;;;16.82;100.00;99396.94;10331226;28;97013;-85
2023/05/15 11:46:24;;;;;;;1.33;1.13;;;18.60;99.90;;;16.88;100.00;99389.84;10329530;28;97819;-85
2023/05/15 11:51:28;;;;;;;1.83;1.17;;;18.60;99.90;;;16.98;100.00;99390.13;10320139;28;96800;-85
2023/05/15 11:56:32;;;;;;;1.52;0.80;;;18.60;99.90;;;17.11;100.00;99376.50;10319528;28;96678;-85
2023/05/15 12:01:44;;;;;;;1.60;1.13;;;18.80;99.90;;;17.30;100.00;99382.59;10335304;28;96607;-86
2023/05/15 12:06:48;;;;;;;3.80;0.73;;;19.00;99.90;;;17.52;100.00;99382.06;10320935;28;96744;-86
2023/05/15 12:11:55;;;;;;;1.75;0.70;;;19.20;99.90;;;17.72;100.00;99384.41;10319488;28;96635;-84
2023/05/15 12:17:03;;;;;;;0.70;0.68;;;19.50;99.90;;;17.92;100.00;99393.75;10310452;28;96513;-84
2023/05/15 12:22:07;;;;;;;1.60;0.80;;;19.70;99.90;;;18.04;100.00;99376.78;10320007;28;96502;-85
2023/05/15 12:27:12;;;;;;;1.55;0.90;;;19.90;99.90;;;18.18;100.00;99383.56;10318788;28;98659;-85
2023/05/15 12:32:15;;;;;;;0.70;0.65;;;20.20;99.90;;;18.20;100.00;99384.13;10320244;28;96615;-85
2023/05/15 12:37:22;;;;;;;0.75;0.57;;;20.30;99.90;;;18.19;100.00;99383.31;10334387;28;97189;-87
2023/05/15 12:42:26;;;;;;;1.20;0.55;;;20.30;99.90;;;17.98;100.00;99407.28;10360905;28;97147;-85
2023/05/15 12:47:29;;;;;;;0.70;0.60;;;20.10;99.90;;;17.80;100.00;99395.63;10350541;28;96714;-85
2023/05/15 12:52:32;;;;;;;1.13;0.75;;;19.80;99.90;;;17.62;100.00;99399.19;10351055;28;96651;-85
2023/05/15 12:57:35;;;;;;;1.10;0.70;;;19.60;99.90;;;17.41;100.00;99388.22;10334336;28;96498;-87
2023/05/15 13:02:42;;;;;;;1.17;0.50;;;19.40;99.90;;;17.54;100.00;99378.06;10345793;28;96952;-85
2023/05/15 13:07:46;;;;;;;1.02;0.45;;;19.40;99.90;;;17.98;100.00;99377.72;10348558;28;96672;-86
2023/05/15 13:12:52;;;;;;;0.63;0.40;;;19.80;99.90;;;18.01;94.63;99366.50;10364546;28;96582;-84
2023/05/15 13:17:59;;;;;;;0.55;0.40;;;20.00;99.90;;;17.90;100.00;99382.41;10346866;28;96726;-87
2023/05/15 13:23:03;;;;;;;2.13;0.47;;;19.90;99.90;;;18.23;100.00;99361.31;10317180;28;96648;-86
2023/05/15 13:28:07;;;;;;;0.40;0.38;;;20.10;99.90;;;18.60;100.00;99359.91;10346325;28;98018;-85
2023/05/15 13:33:11;;;;;;;0.40;0.30;;;20.50;99.90;;;18.89;100.00;99366.13;10343831;28;97290;-84
2023/05/15 13:38:15;;;;;;;1.38;0.30;;;20.70;99.90;;;18.83;100.00;99352.78;10310681;28;96691;-85
2023/05/15 13:43:18;;;;;;;0.40;0.25;;;20.80;99.90;;;18.84;100.00;99362.53;10349540;28;96505;-86
2023/05/15 13:48:21;;;;;;;1.42;0.32;;;20.80;99.90;;;18.81;100.00;99353.03;10350770;28;96479;-84
2023/05/15 13:53:24;;;;;;;1.15;0.50;;;20.80;99.90;;;18.66;100.00;99352.75;10319588;28;96839;-84
2023/05/15 13:58:27;;;;;;;5.75;0.63;;;20.70;99.90;;;18.55;100.00;99348.25;10365410;28;96627;-85
2023/05/15 14:03:30;;;;;;;0.80;0.40;;;20.50;99.90;;;18.60;100.00;99348.34;10331925;28;96726;-85
2023/05/15 14:08:33;;;;;;;1.40;0.52;;;20.50;99.90;;;18.87;100.00;99353.94;10365581;28;96625;-85
2023/05/15 14:13:36;;;;;;;0.45;0.32;;;20.80;99.90;;;19.08;100.00;99352.44;10344398;28;96670;-84
2023/05/15 14:18:39;;;;;;;1.15;0.50;;;21.20;99.90;;;19.15;98.84;99363.88;10364291;28;97239;-86
2023/05/15 14:23:42;;;;;;;1.05;0.40;;;21.50;99.90;;;19.35;99.99;99364.19;10347542;28;96807;-85
2023/05/15 14:28:45;;;;;;;0.82;0.60;;;21.80;99.90;;;19.43;100.00;99352.16;10346392;28;96652;-85
2023/05/15 14:33:48;;;;;;;0.75;0.40;;;22.00;99.90;;;19.61;96.34;99364.59;10311665;28;96592;-85
2023/05/15 14:38:54;;;;;;;0.47;0.32;;;22.20;99.90;;;19.78;94.25;99365.38;10376741;28;96701;-85
2023/05/15 14:43:59;;;;;;;0.70;0.40;;;22.50;99.90;;;19.95;84.15;99363.47;10337279;28;97241;-85
2023/05/15 14:49:04;;;;;;;0.70;0.47;;;22.80;98.50;;;19.90;82.08;99362.59;10345774;28;97991;-85
2023/05/15 14:54:06;;;;;;;0.95;0.40;;;22.60;97.20;;;19.48;88.24;99380.00;10366770;28;97092;-86
2023/05/15 14:59:09;;;;;;;11.18;0.82;;;22.00;97.70;;;19.22;99.18;99386.06;10337623;28;96600;-87
2023/05/15 15:04:13;;;;;;;3.25;0.60;;;21.40;99.20;;;18.80;92.26;99383.72;10338941;28;96877;-87
2023/05/15 15:09:16;;;;;;;1.75;0.40;;;21.00;99.10;;;18.53;98.13;99374.53;10326708;28;96540;-88
2023/05/15 15:14:22;;;;;;;1.13;0.65;;;20.60;99.90;;;18.18;91.43;99387.06;10361937;28;98606;-87
2023/05/15 15:19:25;;;;;;;2.13;0.40;;;20.20;99.90;;;17.96;98.64;99396.78;10345274;28;98204;-92
2023/05/15 15:24:28;;;;;;;0.63;0.50;;;19.90;99.90;;;17.85;98.73;99401.09;10346343;28;96684;-92
2023/05/15 15:29:32;;;;;;;1.33;0.40;;;19.80;99.90;;;17.85;100.00;99408.34;10349706;28;96572;-91
2023/05/15 15:34:35;;;;;;;0.65;0.55;;;19.80;99.90;;;17.79;99.31;99420.03;10345239;28;96664;-93
2023/05/15 15:39:39;;;;;;;0.80;0.47;;;19.70;99.90;;;17.73;100.00;99416.41;10344718;28;97631;-92
2023/05/15 15:44:42;;;;;;;0.98;0.60;;;19.60;99.90;;;17.59;100.00;99421.19;10361715;28;96656;-92
2023/05/15 15:49:44;;;;;;;0.77;0.50;;;19.50;99.90;;;17.41;96.17;99413.22;10362633;28;96632;-92
2023/05/15 15:54:47;;;;;;;0.68;0.60;;;19.30;99.90;;;17.33;100.00;99409.00;10343105;28;97113;-92
2023/05/15 15:59:50;;;;;;;0.60;0.47;;;19.20;99.90;;;17.38;100.00;99408.28;10353582;28;96880;-92
2023/05/15 16:04:53;;;;;;;0.55;0.50;;;19.20;99.90;;;17.30;98.12;99422.06;10361965;28;96677;-91
2023/05/15 16:09:58;;;;;;;0.45;0.40;;;19.20;99.90;;;17.25;97.25;99420.06;10335741;28;96630;-92
2023/05/15 16:15:15;;;;;;;0.50;0.50;;;19.10;99.90;;;17.15;99.18;99414.44;10309035;28;98387;-91
2023/05/15 16:20:25;;;;;;;17.10;5.05;;;19.00;99.90;;;17.17;100.00;99411.53;10357101;28;96504;-93
2023/05/15 16:25:29;;;;;;;1.65;0.60;;;18.90;99.90;;;17.08;100.00;99413.72;10353948;28;97744;-94
2023/05/15 16:30:32;;;;;;;0.90;0.40;;;18.90;99.90;;;16.92;100.00;99430.47;10357969;28;96558;-94
2023/05/15 16:35:51;;;;;;;0.40;0.30;;;18.70;99.90;;;16.76;100.00;99427.38;10341702;28;98611;-93
2023/05/15 16:40:55;;;;;;;0.65;0.35;;;18.50;99.90;;;16.65;100.00;99441.53;10370064;28;96723;-94
2023/05/15 16:45:58;;;;;;;0.38;0.28;;;18.40;99.90;;;16.65;100.00;99451.44;10354266;28;96551;-94
2023/05/15 16:51:01;;;;;;;2.85;0.90;;;18.30;99.90;;;16.52;100.00;99463.16;10353842;28;96874;-92
2023/05/15 16:56:04;;;;;;;1.48;0.20;;;18.30;99.90;;;16.41;100.00;99467.38;10355011;28;97619;-93
2023/05/15 17:01:07;;;;;;;0.40;0.20;;;18.10;99.90;;;16.37;100.00;99465.38;10337365;28;96926;-93
2023/05/15 17:06:10;;;;;;;0.50;0.35;;;18.10;99.90;;;16.27;100.00;99464.03;10354380;28;96493;-94
2023/05/15 17:11:13;;;;;;;0.38;0.22;;;18.00;99.90;;;16.26;100.00;99475.00;10354146;28;96690;-94
2023/05/15 17:16:16;;;;;;;0.68;0.30;;;17.90;99.90;;;16.18;100.00;99473.41;10353434;28;98009;-91
2023/05/15 17:21:19;;;;;;;1.25;0.35;;;17.80;99.90;;;16.14;100.00;99482.94;10387457;28;96525;-95
2023/05/15 17:26:22;;;;;;;2.08;0.60;;;17.80;99.90;;;16.07;100.00;99476.81;10348394;28;97041;-94
2023/05/15 17:31:27;;;;;;;1.15;0.45;;;17.70;99.90;;;15.95;100.00;99495.50;10369850;28;97163;-94
2023/05/15 17:36:30;;;;;;;4.50;0.57;;;17.60;99.90;;;15.86;100.00;99491.44;10339111;28;96560;-94
2023/05/15 17:41:33;;;;;;;0.85;0.30;;;17.50;99.90;;;15.81;100.00;99501.16;10352772;28;96700;-94
2023/05/15 17:46:36;;;;;;;0.40;0.30;;;17.40;99.90;;;15.71;100.00;99505.16;10371069;28;96664;-94
2023/05/15 17:51:39;;;;;;;0.98;0.40;;;17.30;99.90;;;15.67;100.00;99506.63;10371914;28;96481;-95
2023/05/15 17:56:42;;;;;;;1.52;0.30;;;17.30;99.90;;;15.53;100.00;99507.72;10363141;28;96545;-94
2023/05/15 18:01:45;;;;;;;1.73;0.75;;;17.20;99.90;;;15.48;100.00;99504.91;10340754;28;96749;-93
2023/05/15 18:06:48;;;;;;;2.03;0.77;;;17.10;99.90;;;15.46;100.00;99506.94;10366946;28;96507;-94
2023/05/15 18:11:51;;;;;;;26.20;2.72;;;17.00;99.90;;;15.39;100.00;99501.63;10351706;28;96943;-94
2023/05/15 18:16:55;;;;;;;2.45;0.98;;;17.00;99.90;;;15.33;100.00;99505.19;10350954;28;96856;-93
2023/05/15 18:22:01;;;;;;;6.28;1.20;;;16.90;99.90;;;15.27;100.00;99509.53;10336215;28;96561;-94
2023/05/15 18:27:04;;;;;;;34.47;1.50;;;16.90;99.90;;;15.17;100.00;99509.22;10324819;28;96608;-93
2023/05/15 18:32:07;;;;;;;1.15;0.30;;;16.80;99.90;;;15.07;100.00;99514.19;10346771;28;96577;-94
2023/05/15 18:37:10;;;;;;;2.50;0.40;;;16.70;99.90;;;14.93;100.00;99517.94;10378276;28;96736;-94
2023/05/15 18:42:15;;;;;;;0.40;0.30;;;16.60;99.90;;;14.84;100.00;99529.94;10338451;28;96853;-94
2023/05/15 18:47:18;;;;;;;2.40;0.30;;;16.50;99.90;;;14.69;100.00;99533.69;10350971;28;96992;-94
2023/05/15 18:52:21;;;;;;;1.17;0.60;;;16.30;99.90;;;14.56;100.00;99547.06;10329158;28;97523;-93
2023/05/15 18:57:25;;;;;;;1.88;0.80;;;16.20;99.90;;;14.47;100.00;99551.03;10342468;28;96717;-95
2023/05/15 19:02:28;;;;;;;8.45;0.98;;;16.10;99.90;;;14.43;100.00;99555.09;10350359;28;96636;-93
2023/05/15 19:07:31;;;;;;;1.40;0.63;;;16.00;99.90;;;14.39;100.00;99567.22;10347169;28;97415;-90
2023/05/15 19:12:34;;;;;;;2.47;1.00;;;16.00;99.90;;;14.37;100.00;99569.31;10346360;28;97841;-90
2023/05/15 19:17:37;;;;;;;3.40;1.38;;;15.90;99.90;;;14.30;100.00;99574.66;10328455;28;96841;-89
2023/05/15 19:22:40;;;;;;;2.38;1.40;;;15.90;99.90;;;14.19;100.00;99580.63;10330269;28;96616;-91
2023/05/15 19:27:43;;;;;;;3.13;1.05;;;15.80;99.90;;;14.11;100.00;99579.00;10364510;28;96646;-90
2023/05/15 19:32:46;;;;;;;2.80;1.33;;;15.70;99.90;;;14.06;100.00;99581.44;10347142;28;96528;-90
2023/05/15 19:37:49;;;;;;;4.32;1.85;;;15.60;99.90;;;14.02;100.00;99601.56;10354980;28;96872;-94
2023/05/15 19:42:52;;;;;;;2.65;1.25;;;15.60;99.90;;;13.97;100.00;99605.88;10350521;28;97961;-94
2023/05/15 19:47:55;;;;;;;2.00;0.90;;;15.50;99.90;;;13.91;100.00;99603.03;10365104;28;96740;-94
2023/05/15 19:52:58;;;;;;;3.53;1.30;;;15.50;99.90;;;13.86;100.00;99596.66;10362713;28;96740;-93
2023/05/15 19:58:01;;;;;;;2.40;1.00;;;15.50;99.90;;;13.79;100.00;99590.44;10334475;28;98206;-89
2023/05/15 20:03:04;;;;;;;1.25;0.70;;;15.40;99.90;;;13.59;100.00;99591.25;10354626;28;96632;-91
2023/05/15 20:08:08;;;;;;;1.10;0.60;;;15.30;99.90;;;13.43;100.00;99591.59;10335200;28;96656;-86
2023/05/15 20:13:11;;;;;;;1.73;0.63;;;15.10;99.90;;;13.30;100.00;99583.56;10355463;28;96583;-85
2023/05/15 20:18:14;;;;;;;0.90;0.63;;;14.90;99.90;;;13.21;100.00;99576.78;10316375;28;97754;-86
2023/05/15 20:23:17;;;;;;;1.23;0.70;;;14.80;99.90;;;13.12;100.00;99590.25;10341032;28;96852;-86
2023/05/15 20:28:24;;;;;;;1.40;0.57;;;14.70;99.90;;;13.09;100.00;99592.50;10337295;28;98487;-86
2023/05/15 20:33:27;;;;;;;0.68;0.50;;;14.70;99.90;;;13.04;100.00;99598.44;10343014;28;96516;-86
2023/05/15 20:38:32;;;;;;;0.90;0.50;;;14.70;99.90;;;13.06;100.00;99600.88;10313903;28;96587;-85
2023/05/15 20:43:37;;;;;;;3.58;0.68;;;14.70;99.90;;;13.03;100.00;99602.13;10358673;28;96638;-86
2023/05/15 20:48:40;;;;;;;1.17;0.60;;;14.60;99.90;;;13.03;100.00;99619.97;10323230;28;97863;-84